Time;durP1;ratioP1;P1;durP2;ratioP2;P2;SDS_P1;SDS_P2;PMS_P1;PMS_P2;Temp;Humidity;BMP_temperature;BMP_pressure;BME280_temperature;BME280_humidity;BME280_pressure;Samples;Min_cycle;Max_cycle;Signal;HPM_P1;HPM_P2
2022/03/09 00:02:34;;;;;;;2.88;2.20;;;;;;;0.59;100.00;99086.81;10286329;28;20055;-56
2022/03/09 00:07:38;;;;;;;2.40;2.15;;;;;;;0.42;100.00;99092.16;10282703;28;20055;-56
2022/03/09 00:12:41;;;;;;;2.85;2.20;;;;;;;0.35;100.00;99098.72;10281762;28;20138;-57
2022/03/09 00:17:46;;;;;;;2.75;2.47;;;;;;;0.30;100.00;99093.66;10284926;28;20057;-55
2022/03/09 00:22:49;;;;;;;4.93;2.55;;;;;;;0.29;100.00;99103.38;10282586;28;20470;-59
2022/03/09 00:27:52;;;;;;;4.97;2.70;;;;;;;0.27;100.00;99099.13;10281814;28;20137;-58
2022/03/09 00:32:56;;;;;;;4.72;2.53;;;;;;;0.23;100.00;99103.72;10282962;28;21224;-56
2022/03/09 00:37:59;;;;;;;6.47;2.42;;;;;;;0.20;100.00;99100.38;10283039;28;20058;-59
2022/03/09 00:43:03;;;;;;;6.78;2.67;;;;;;;0.12;100.00;99098.13;10283146;28;20330;-62
2022/03/09 00:48:07;;;;;;;3.40;2.58;;;;;;;0.08;100.00;99110.66;10281606;28;20118;-62
2022/03/09 00:53:11;;;;;;;2.90;2.55;;;;;;;0.10;100.00;99092.03;10281918;28;20102;-60
2022/03/09 00:58:14;;;;;;;3.92;2.50;;;;;;;0.08;100.00;99093.91;10281688;28;20125;-62
2022/03/09 01:03:18;;;;;;;3.03;2.35;;;;;;;0.10;100.00;99090.25;10280197;28;20134;-60
2022/03/09 01:08:21;;;;;;;3.13;2.38;;;;;;;0.09;100.00;99088.53;10310745;28;20042;-62
2022/03/09 01:13:25;;;;;;;3.53;2.78;;;;;;;0.04;100.00;99082.59;10301698;28;20101;-61
2022/03/09 01:18:29;;;;;;;3.70;2.90;;;;;;;-0.05;100.00;99067.19;10286567;28;20130;-59
2022/03/09 01:23:32;;;;;;;3.17;2.47;;;;;;;-0.16;100.00;99065.06;10281804;28;20039;-59
2022/03/09 01:28:35;;;;;;;4.20;2.55;;;;;;;-0.29;100.00;99070.13;10281253;28;20122;-59
2022/03/09 01:33:39;;;;;;;3.30;2.90;;;;;;;-0.34;100.00;99070.38;10285926;28;20085;-61
2022/03/09 01:38:43;;;;;;;4.10;3.10;;;;;;;-0.38;100.00;99071.44;10281617;28;20074;-61
2022/03/09 01:43:57;;;;;;;4.50;2.83;;;;;;;-0.48;100.00;99064.91;10284920;28;20556;-56
2022/03/09 01:49:03;;;;;;;6.03;2.90;;;;;;;-0.55;100.00;99074.09;10276081;28;20062;-56
2022/03/09 01:54:06;;;;;;;5.15;2.97;;;;;;;-0.65;100.00;99069.22;10283286;28;20035;-59
2022/03/09 01:59:10;;;;;;;4.07;3.00;;;;;;;-0.73;100.00;99070.53;10278647;28;21316;-61
2022/03/09 02:04:15;;;;;;;3.78;2.75;;;;;;;-0.71;100.00;99061.59;10282040;28;20039;-61
2022/03/09 02:14:40;;;;;;;4.07;2.60;;;;;;;-0.51;100.00;99050.03;10285019;28;20121;-59
2022/03/09 02:19:47;;;;;;;2.85;2.60;;;;;;;-0.47;100.00;99051.56;10279253;28;20050;-57
2022/03/09 02:24:52;;;;;;;6.47;2.67;;;;;;;-0.41;100.00;99055.72;10279427;28;20586;-61
2022/03/09 02:29:56;;;;;;;2.80;2.50;;;;;;;-0.40;100.00;99052.13;10282476;28;20092;-57
2022/03/09 02:34:59;;;;;;;3.30;2.50;;;;;;;-0.40;100.00;99056.59;10288244;28;20051;-58
2022/03/09 02:40:04;;;;;;;3.75;2.80;;;;;;;-0.45;100.00;99058.59;10288165;28;20051;-55
2022/03/09 02:45:08;;;;;;;4.47;2.95;;;;;;;-0.51;100.00;99065.03;10285946;28;20074;-61
2022/03/09 02:50:13;;;;;;;6.97;3.10;;;;;;;-0.59;100.00;99070.72;10286788;28;20098;-59
2022/03/09 02:55:18;;;;;;;3.30;2.80;;;;;;;-0.65;100.00;99069.22;10285869;28;20039;-60
2022/03/09 03:00:21;;;;;;;3.72;2.60;;;;;;;-0.69;100.00;99083.53;10286450;28;20503;-57
2022/03/09 03:05:24;;;;;;;3.92;2.90;;;;;;;-0.73;100.00;99083.78;10307343;28;20078;-60
2022/03/09 03:10:28;;;;;;;3.38;2.70;;;;;;;-0.81;100.00;99084.13;10307844;28;20128;-62
2022/03/09 03:15:31;;;;;;;3.03;2.70;;;;;;;-0.86;100.00;99086.13;10286018;28;20074;-60
2022/03/09 03:20:34;;;;;;;2.75;2.55;;;;;;;-0.91;100.00;99088.16;10290958;28;20096;-62
2022/03/09 03:25:39;;;;;;;3.50;2.88;;;;;;;-0.96;100.00;99091.84;10284775;28;20042;-60
2022/03/09 03:30:42;;;;;;;3.53;2.90;;;;;;;-0.97;100.00;99097.22;10283019;28;20090;-60
2022/03/09 03:35:46;;;;;;;4.47;2.97;;;;;;;-0.97;100.00;99095.44;10287598;28;20074;-60
2022/03/09 03:40:50;;;;;;;5.80;2.90;;;;;;;-0.97;100.00;99097.22;10294317;28;21559;-60
2022/03/09 03:45:53;;;;;;;3.38;2.70;;;;;;;-0.99;100.00;99099.06;10288612;28;20109;-61
2022/03/09 03:50:57;;;;;;;4.22;2.78;;;;;;;-1.04;100.00;99107.22;10284646;28;20122;-61
2022/03/09 03:56:03;;;;;;;3.28;2.83;;;;;;;-1.10;100.00;99107.50;10293203;28;20089;-58
2022/03/09 04:01:07;;;;;;;5.68;3.10;;;;;;;-1.11;100.00;99100.50;10292462;28;20050;-62
2022/03/09 04:06:10;;;;;;;3.97;3.17;;;;;;;-1.16;100.00;99106.00;10279618;28;20051;-63
2022/03/09 04:11:15;;;;;;;4.38;3.75;;;;;;;-1.29;100.00;99108.34;10284269;28;20587;-62
2022/03/09 04:16:18;;;;;;;7.72;3.28;;;;;;;-1.33;100.00;99106.75;10280956;28;20054;-61
2022/03/09 04:21:21;;;;;;;5.30;3.60;;;;;;;-1.45;100.00;99104.66;10283679;28;20120;-63
2022/03/09 04:26:26;;;;;;;4.15;3.15;;;;;;;-1.55;100.00;99114.81;10280464;28;20130;-62
2022/03/09 04:31:29;;;;;;;3.53;3.13;;;;;;;-1.70;100.00;99118.97;10280328;28;20078;-59
2022/03/09 04:36:33;;;;;;;4.60;3.40;;;;;;;-1.77;100.00;99115.75;10282761;28;20093;-60
2022/03/09 04:41:38;;;;;;;4.13;3.47;;;;;;;-1.98;100.00;99120.16;10283229;28;20043;-61
2022/03/09 04:46:41;;;;;;;4.63;3.47;;;;;;;-2.12;100.00;99117.22;10281681;28;20530;-62
2022/03/09 04:51:47;;;;;;;3.83;3.35;;;;;;;-2.23;100.00;99118.53;10288026;28;20049;-59
2022/03/09 04:56:52;;;;;;;6.40;3.50;;;;;;;-2.25;100.00;99109.81;10281564;28;20055;-58
2022/03/09 05:01:55;;;;;;;3.92;3.50;;;;;;;-2.25;100.00;99124.81;10293012;28;20117;-59
2022/03/09 05:06:58;;;;;;;4.32;3.60;;;;;;;-2.27;100.00;99121.38;10305272;28;20070;-58
2022/03/09 05:12:03;;;;;;;4.25;3.85;;;;;;;-2.30;100.00;99124.13;10289617;28;20152;-61
2022/03/09 05:17:08;;;;;;;4.10;3.70;;;;;;;-2.33;100.00;99125.13;10286536;28;20053;-60
2022/03/09 05:22:11;;;;;;;4.43;3.70;;;;;;;-2.35;100.00;99126.97;10282095;28;20042;-59
2022/03/09 05:27:27;;;;;;;4.77;4.27;;;;;;;-2.37;100.00;99134.06;10278173;28;20503;-61
2022/03/09 05:32:30;;;;;;;4.32;3.78;;;;;;;-2.39;100.00;99142.06;10276383;28;20059;-60
2022/03/09 05:37:36;;;;;;;4.88;4.20;;;;;;;-2.39;100.00;99149.09;10281962;28;20125;-61
2022/03/09 05:42:42;;;;;;;5.55;4.00;;;;;;;-2.37;100.00;99148.16;10283530;28;20487;-65
2022/03/09 05:47:45;;;;;;;5.03;3.95;;;;;;;-2.38;100.00;99161.38;10291807;28;20051;-65
2022/03/09 05:52:48;;;;;;;6.45;4.20;;;;;;;-2.37;100.00;99163.09;10282087;28;20514;-65
2022/03/09 05:57:52;;;;;;;7.63;3.95;;;;;;;-2.37;100.00;99166.63;10283254;28;20058;-65
2022/03/09 06:02:55;;;;;;;4.90;3.88;;;;;;;-2.36;100.00;99180.66;10286111;28;20047;-67
2022/03/09 06:07:58;;;;;;;5.40;4.40;;;;;;;-2.36;100.00;99186.81;10286586;28;20090;-66
2022/03/09 06:13:03;;;;;;;6.55;4.35;;;;;;;-2.34;100.00;99189.38;10288451;28;20122;-65
2022/03/09 06:18:06;;;;;;;5.88;4.25;;;;;;;-2.34;100.00;99181.47;10287901;28;20048;-68
2022/03/09 06:23:09;;;;;;;5.43;4.38;;;;;;;-2.34;100.00;99179.66;10287031;28;20042;-67
2022/03/09 06:28:13;;;;;;;4.72;3.90;;;;;;;-2.34;100.00;99182.31;10286805;28;20462;-60
2022/03/09 06:33:16;;;;;;;6.10;4.25;;;;;;;-2.34;100.00;99184.94;10294612;28;20563;-65
2022/03/09 06:38:19;;;;;;;5.30;4.18;;;;;;;-2.31;100.00;99189.28;10289259;28;20050;-62
2022/03/09 06:43:24;;;;;;;5.63;4.40;;;;;;;-2.26;100.00;99195.19;10286536;28;20043;-63
2022/03/09 06:48:28;;;;;;;4.90;4.40;;;;;;;-2.22;100.00;99202.09;10285007;28;20039;-62
2022/03/09 06:53:31;;;;;;;6.25;4.30;;;;;;;-2.19;100.00;99203.75;10287148;28;20039;-57
2022/03/09 06:58:35;;;;;;;5.47;4.13;;;;;;;-2.12;100.00;99209.63;10286648;28;20130;-60
2022/03/09 07:03:38;;;;;;;6.60;4.85;;;;;;;-2.08;100.00;99205.97;10301662;28;20518;-57
2022/03/09 07:08:46;;;;;;;8.05;5.15;;;;;;;-2.02;100.00;99209.22;10299500;28;20042;-56
2022/03/09 07:13:51;;;;;;;7.57;5.20;;;;;;;-1.94;100.00;99211.50;10287923;28;20043;-58
2022/03/09 07:18:54;;;;;;;7.22;5.68;;;;;;;-1.80;100.00;99220.66;10283086;28;20154;-61
2022/03/09 07:23:57;;;;;;;8.75;5.20;;;;;;;-1.68;100.00;99217.50;10292478;28;20121;-57
2022/03/09 07:29:03;;;;;;;7.18;5.10;;;;;;;-1.56;100.00;99209.06;10287282;28;20050;-58
2022/03/09 07:34:07;;;;;;;5.95;5.07;;;;;;;-1.30;100.00;99215.03;10283282;28;20134;-62
2022/03/09 07:39:10;;;;;;;5.93;4.75;;;;;;;-1.16;100.00;99208.28;10286608;28;20404;-60
2022/03/09 07:44:17;;;;;;;5.95;4.45;;;;;;;-1.01;100.00;99210.25;10285611;28;20047;-59
2022/03/09 07:49:21;;;;;;;5.10;4.47;;;;;;;-0.86;100.00;99213.09;10284300;28;20046;-60
2022/03/09 07:54:24;;;;;;;5.30;4.18;;;;;;;-0.61;100.00;99218.16;10283607;28;20518;-60
2022/03/09 07:59:28;;;;;;;4.15;3.72;;;;;;;-0.35;100.00;99213.41;10281646;28;20580;-60
2022/03/09 08:04:32;;;;;;;4.75;3.40;;;;;;;-0.08;100.00;99211.25;10283488;28;20078;-59
2022/03/09 08:09:35;;;;;;;7.22;3.63;;;;;;;0.14;100.00;99216.34;10282865;28;20328;-60
2022/03/09 08:14:49;;;;;;;4.03;3.45;;;;;;;0.48;100.00;99218.22;10282630;28;20061;-57
2022/03/09 08:19:52;;;;;;;5.53;3.40;;;;;;;0.72;100.00;99210.81;10283718;28;20049;-56
2022/03/09 08:24:55;;;;;;;4.57;3.25;;;;;;;0.90;100.00;99204.56;10284100;28;20042;-61
2022/03/09 08:30:00;;;;;;;3.97;3.33;;;;;;;1.13;100.00;99210.44;10283431;28;20059;-60
2022/03/09 08:35:03;;;;;;;3.90;2.88;;;;;;;1.35;100.00;99206.66;10280298;28;20069;-61
2022/03/09 08:40:07;;;;;;;4.78;3.20;;;;;;;1.60;100.00;99210.59;10282617;28;20138;-60
2022/03/09 08:45:13;;;;;;;3.75;2.75;;;;;;;1.84;100.00;99219.00;10280432;28;20061;-59
2022/03/09 08:50:16;;;;;;;3.97;2.95;;;;;;;1.99;100.00;99219.94;10282382;28;20122;-59
2022/03/09 08:55:34;;;;;;;3.78;2.72;;;;;;;2.36;100.00;99228.47;10280585;28;20049;-61
2022/03/09 09:00:39;;;;;;;3.88;2.45;;;;;;;2.56;100.00;99221.97;10308564;28;20149;-61
2022/03/09 09:05:42;;;;;;;4.25;2.50;;;;;;;2.89;96.77;99214.69;10298949;28;20035;-61
2022/03/09 09:10:46;;;;;;;2.78;2.20;;;;;;;3.16;90.74;99209.53;10294531;28;20507;-63
2022/03/09 09:15:50;;;;;;;4.63;2.30;;;;;;;3.45;94.32;99214.00;10281108;28;20043;-63
2022/03/09 09:20:54;;;;;;;3.45;2.28;;;;;;;3.62;85.12;99211.09;10282728;28;20047;-63
2022/03/09 09:25:57;;;;;;;3.95;2.25;;;;;;;3.82;78.17;99219.66;10279460;28;20499;-63
2022/03/09 09:31:01;;;;;;;3.50;2.30;;;;;;;4.06;74.77;99211.00;10284247;28;20054;-62
2022/03/09 09:36:05;;;;;;;3.50;2.38;;;;;;;4.29;74.85;99214.81;10286416;28;20043;-63
2022/03/09 09:41:13;;;;;;;4.93;2.75;;;;;;;4.44;74.13;99207.59;10300777;28;20130;-63
2022/03/09 09:46:18;;;;;;;4.95;2.45;;;;;;;4.57;72.15;99208.50;10291166;28;20054;-63
2022/03/09 09:51:23;;;;;;;3.03;2.20;;;;;;;4.81;66.41;99197.09;10289897;28;20054;-64
2022/03/09 09:56:27;;;;;;;6.57;2.65;;;;;;;5.03;61.37;99207.16;10288147;28;20085;-62
2022/03/09 10:01:31;;;;;;;3.42;2.17;;;;;;;5.25;61.57;99205.66;10288465;28;20055;-63
2022/03/09 10:06:35;;;;;;;2.88;2.20;;;;;;;5.57;61.42;99199.81;10289353;28;20130;-64
2022/03/09 10:11:45;;;;;;;4.63;2.40;;;;;;;5.73;60.03;99188.88;10292642;28;20045;-63
2022/03/09 10:17:04;;;;;;;2.38;2.00;;;;;;;5.92;57.79;99187.56;10286621;28;20542;-63
2022/03/09 10:22:26;;;;;;;3.33;1.90;;;;;;;6.16;53.79;99190.25;10286195;28;20874;-64
2022/03/09 10:27:50;;;;;;;2.55;2.00;;;;;;;6.26;57.77;99187.75;10285731;28;20061;-64
2022/03/09 10:32:56;;;;;;;2.30;2.00;;;;;;;6.50;54.65;99184.19;10288716;28;20065;-64
2022/03/09 10:38:02;;;;;;;2.55;2.00;;;;;;;6.65;53.87;99179.50;10285397;28;20051;-64
2022/03/09 10:43:11;;;;;;;2.25;1.80;;;;;;;6.85;52.32;99180.63;10286011;28;20145;-64
2022/03/09 10:48:15;;;;;;;3.47;2.10;;;;;;;7.04;49.89;99183.59;10284674;28;20054;-64
2022/03/09 10:53:18;;;;;;;2.63;1.80;;;;;;;7.13;49.91;99184.69;10287943;28;20087;-64
2022/03/09 10:58:23;;;;;;;5.70;1.63;;;;;;;7.25;47.77;99167.66;10310065;28;20415;-63
2022/03/09 11:03:28;;;;;;;2.20;1.63;;;;;;;7.43;47.02;99180.56;10303947;28;20093;-64
2022/03/09 11:08:34;;;;;;;1.83;1.73;;;;;;;7.56;45.75;99169.72;10281769;28;20058;-64
2022/03/09 11:13:38;;;;;;;1.90;1.73;;;;;;;7.78;47.61;99173.34;10286705;28;20042;-64
2022/03/09 11:18:43;;;;;;;2.70;1.90;;;;;;;7.89;46.54;99159.88;10290621;28;20199;-64
2022/03/09 11:23:46;;;;;;;1.75;1.35;;;;;;;8.11;44.85;99163.47;10286268;28;20053;-64
2022/03/09 11:29:00;;;;;;;1.88;1.70;;;;;;;8.39;46.29;99153.13;10283466;28;20053;-66
2022/03/09 11:34:04;;;;;;;2.30;1.80;;;;;;;8.54;47.82;99154.53;10294136;28;20062;-69
2022/03/09 11:39:24;;;;;;;3.08;1.80;;;;;;;8.83;46.80;99155.72;10289619;28;20050;-68
2022/03/09 11:44:29;;;;;;;1.95;1.80;;;;;;;9.01;47.03;99145.22;10288258;28;20130;-66
2022/03/09 11:50:07;;;;;;;2.35;1.83;;;;;;;9.25;44.62;99140.38;10286028;28;20098;-65
2022/03/09 11:55:18;;;;;;;4.07;2.00;;;;;;;9.48;43.99;99140.16;10288797;28;20045;-65
2022/03/09 12:00:22;;;;;;;3.67;1.83;;;;;;;9.58;45.76;99142.06;10284843;28;20500;-64
2022/03/09 12:05:41;;;;;;;2.35;2.10;;;;;;;9.54;44.30;99141.47;10288444;28;20039;-64
2022/03/09 12:10:50;;;;;;;3.85;1.88;;;;;;;9.53;45.73;99140.63;10289118;28;20061;-64
2022/03/09 12:16:15;;;;;;;2.30;1.90;;;;;;;9.78;45.12;99138.44;10280933;28;20052;-63
2022/03/09 12:21:59;;;;;;;3.00;1.77;;;;;;;9.97;44.52;99134.91;10283384;28;20419;-64
2022/03/09 12:27:26;;;;;;;1.90;1.70;;;;;;;9.99;44.94;99121.31;10284002;28;20508;-61
2022/03/09 12:32:41;;;;;;;2.72;2.10;;;;;;;10.14;45.39;99124.44;10280238;28;20826;-62
2022/03/09 12:37:45;;;;;;;2.47;1.80;;;;;;;10.27;45.98;99122.31;10285955;28;20043;-60
2022/03/09 12:43:00;;;;;;;2.38;1.92;;;;;;;10.35;43.43;99118.91;10281989;28;20070;-61
2022/03/09 12:48:03;;;;;;;2.75;2.03;;;;;;;10.68;46.76;99115.94;10282842;28;20039;-61
2022/03/09 12:53:06;;;;;;;2.30;1.92;;;;;;;10.91;44.45;99100.25;10289714;28;20061;-60
2022/03/09 12:58:11;;;;;;;5.13;2.10;;;;;;;11.05;44.66;99105.16;10314726;28;20113;-61
2022/03/09 13:03:14;;;;;;;2.17;1.98;;;;;;;11.25;44.30;99097.84;10309258;28;20130;-63
2022/03/09 13:08:17;;;;;;;4.43;2.08;;;;;;;11.31;43.63;99093.72;10280114;28;20046;-65
2022/03/09 13:13:29;;;;;;;2.60;1.80;;;;;;;11.56;43.21;99092.16;10279843;28;20046;-63
2022/03/09 13:18:34;;;;;;;3.05;1.88;;;;;;;11.52;42.38;99101.56;10284444;28;20554;-62
2022/03/09 13:23:44;;;;;;;2.15;1.70;;;;;;;11.67;42.00;99093.81;10284271;28;20049;-64
2022/03/09 13:28:53;;;;;;;1.60;1.50;;;;;;;11.94;41.70;99089.31;10286889;28;20847;-64
2022/03/09 13:34:13;;;;;;;4.10;2.00;;;;;;;12.22;40.01;99083.88;10282533;28;20077;-60
2022/03/09 13:39:16;;;;;;;6.63;2.08;;;;;;;12.42;42.38;99081.00;10280455;28;20130;-61
2022/03/09 13:44:27;;;;;;;4.13;1.80;;;;;;;12.70;39.87;99088.97;10284243;28;20073;-63
2022/03/09 13:49:43;;;;;;;1.98;1.80;;;;;;;12.77;39.30;99076.50;10279361;28;20145;-63
2022/03/09 13:54:48;;;;;;;4.65;1.92;;;;;;;12.99;39.99;99074.31;10282106;28;20043;-62
2022/03/09 13:59:52;;;;;;;5.15;1.83;;;;;;;13.04;39.71;99074.66;10280824;28;20061;-61
2022/03/09 14:04:56;;;;;;;2.10;1.80;;;;;;;13.06;39.64;99068.06;10285167;28;20492;-61
2022/03/09 14:10:24;;;;;;;1.98;1.73;;;;;;;13.21;38.57;99064.75;10281855;28;20051;-65
2022/03/09 14:15:30;;;;;;;2.65;2.00;;;;;;;13.47;38.74;99062.00;10281679;28;20455;-66
2022/03/09 14:20:35;;;;;;;2.80;1.98;;;;;;;13.52;37.94;99056.94;10281240;28;20050;-66
2022/03/09 14:25:42;;;;;;;3.42;2.00;;;;;;;13.54;38.16;99071.19;10289337;28;20086;-63
2022/03/09 14:30:49;;;;;;;1.83;1.67;;;;;;;13.64;38.02;99075.59;10288360;28;20471;-61
2022/03/09 14:35:53;;;;;;;3.28;1.60;;;;;;;13.73;37.16;99065.63;10286776;28;20047;-61
2022/03/09 14:40:57;;;;;;;2.92;1.80;;;;;;;13.94;37.05;99073.28;10287281;28;20043;-61
2022/03/09 14:46:03;;;;;;;3.60;1.67;;;;;;;13.97;38.17;99049.44;10284475;28;20574;-63
2022/03/09 14:51:06;;;;;;;3.83;1.80;;;;;;;13.67;37.37;99053.63;10296950;28;20138;-61
2022/03/09 14:56:11;;;;;;;2.30;1.67;;;;;;;14.01;37.53;99055.34;10308223;28;20050;-62
2022/03/09 15:01:16;;;;;;;2.80;1.88;;;;;;;14.12;37.22;99046.91;10292159;28;20070;-59
2022/03/09 15:06:20;;;;;;;2.10;1.67;;;;;;;13.95;37.34;99053.31;10282116;28;20481;-60
2022/03/09 15:11:23;;;;;;;2.88;1.73;;;;;;;13.91;37.43;99050.09;10286745;28;20500;-59
2022/03/09 15:16:27;;;;;;;3.92;1.80;;;;;;;13.95;37.81;99053.31;10285507;28;20086;-59
2022/03/09 15:21:31;;;;;;;2.83;1.90;;;;;;;13.86;36.83;99057.88;10284639;28;20558;-61
2022/03/09 15:26:34;;;;;;;7.30;2.05;;;;;;;13.91;37.93;99058.22;10287582;28;20474;-58
2022/03/09 15:31:39;;;;;;;4.72;2.03;;;;;;;13.91;37.52;99054.66;10286927;28;20059;-59
2022/03/09 15:36:42;;;;;;;2.65;2.00;;;;;;;13.78;37.17;99053.28;10282804;28;20046;-65
2022/03/09 15:41:46;;;;;;;3.60;1.80;;;;;;;13.73;36.48;99052.94;10284571;28;20085;-64
2022/03/09 15:46:51;;;;;;;7.88;1.95;;;;;;;13.66;37.11;99062.75;10283456;28;20045;-64
2022/03/09 15:51:54;;;;;;;1.75;1.60;;;;;;;13.68;37.72;99060.72;10286354;28;20047;-62
2022/03/09 15:56:57;;;;;;;2.63;1.65;;;;;;;13.47;36.82;99069.28;10281998;28;20500;-62
2022/03/09 16:02:02;;;;;;;1.85;1.50;;;;;;;13.34;37.08;99069.72;10284798;28;20121;-63
2022/03/09 16:07:08;;;;;;;4.80;1.60;;;;;;;13.22;37.35;99071.84;10288297;28;20809;-63
2022/03/09 16:12:13;;;;;;;3.00;1.60;;;;;;;13.01;37.43;99070.41;10287170;28;20105;-64
2022/03/09 16:17:18;;;;;;;5.60;1.80;;;;;;;12.72;38.04;99070.75;10284937;28;20051;-64
2022/03/09 16:22:24;;;;;;;3.38;1.40;;;;;;;12.41;38.85;99074.75;10282800;28;20053;-62
2022/03/09 16:27:33;;;;;;;2.42;1.75;;;;;;;12.17;39.32;99073.56;10295816;28;20043;-60
2022/03/09 16:32:37;;;;;;;3.47;1.40;;;;;;;11.93;39.14;99078.69;10282605;28;20138;-65
2022/03/09 16:37:41;;;;;;;2.75;1.73;;;;;;;11.68;40.50;99073.91;10296786;28;20081;-64
2022/03/09 16:42:48;;;;;;;3.35;1.50;;;;;;;11.39;40.24;99072.22;10324957;28;20061;-65
2022/03/09 16:47:53;;;;;;;2.20;1.40;;;;;;;11.06;40.35;99076.34;10336894;28;20403;-70
2022/03/09 16:52:57;;;;;;;1.63;1.52;;;;;;;10.72;40.29;99077.75;10350743;28;20045;-63
2022/03/09 16:58:01;;;;;;;4.07;1.50;;;;;;;10.37;40.84;99086.44;10328362;28;20537;-65
2022/03/09 17:03:06;;;;;;;1.65;1.38;;;;;;;9.87;42.02;99089.13;10347488;28;20056;-67
2022/03/09 17:08:09;;;;;;;3.10;1.50;;;;;;;9.44;42.55;99095.72;10346706;28;20042;-61
2022/03/09 17:13:13;;;;;;;3.28;1.90;;;;;;;9.01;43.99;99099.50;10321152;28;20058;-70
2022/03/09 17:18:18;;;;;;;2.85;1.88;;;;;;;8.67;45.33;99105.13;10328845;28;20050;-66
2022/03/09 17:23:21;;;;;;;3.47;2.13;;;;;;;8.35;45.89;99108.72;10326211;28;20050;-68
2022/03/09 17:28:30;;;;;;;4.22;2.50;;;;;;;8.10;46.89;99116.16;10320695;28;20066;-62
2022/03/09 17:33:39;;;;;;;5.97;3.00;;;;;;;7.91;47.65;99125.75;10328342;28;20063;-66
2022/03/09 17:38:48;;;;;;;4.82;3.08;;;;;;;7.71;48.58;99122.00;10349814;28;20402;-65
2022/03/09 17:44:18;;;;;;;4.10;2.72;;;;;;;7.52;48.86;99125.34;10331373;28;20468;-67
2022/03/09 17:49:23;;;;;;;4.80;2.70;;;;;;;7.39;49.56;99134.38;10332601;28;20470;-66
2022/03/09 17:54:28;;;;;;;3.97;2.83;;;;;;;7.28;49.87;99139.75;10337861;28;20658;-68
2022/03/09 17:59:32;;;;;;;5.15;2.72;;;;;;;7.14;49.86;99148.03;10329523;28;20043;-66
2022/03/09 18:04:37;;;;;;;5.13;3.05;;;;;;;6.96;51.02;99161.91;10327120;28;20404;-65
2022/03/09 18:09:41;;;;;;;6.60;3.08;;;;;;;6.85;51.37;99159.22;10331210;28;20133;-66
2022/03/09 18:14:44;;;;;;;4.45;3.00;;;;;;;6.73;51.10;99167.22;10322984;28;20062;-68
2022/03/09 18:19:50;;;;;;;5.60;3.15;;;;;;;6.67;51.03;99161.50;10342189;28;20121;-61
2022/03/09 18:24:55;;;;;;;4.82;3.20;;;;;;;6.61;51.04;99174.38;10345298;28;20120;-64
2022/03/09 18:30:18;;;;;;;10.75;3.20;;;;;;;6.52;50.83;99163.53;10359237;22;20062;-82
2022/03/09 18:35:22;;;;;;;5.43;3.00;;;;;;;6.46;51.11;99176.41;10373648;28;20108;-82
2022/03/09 18:40:26;;;;;;;3.85;2.90;;;;;;;6.40;52.09;99181.34;10360307;28;20104;-83
2022/03/09 18:45:31;;;;;;;4.97;2.78;;;;;;;6.24;52.51;99182.50;10361266;28;20049;-84
2022/03/09 18:50:35;;;;;;;4.40;2.80;;;;;;;6.10;52.04;99178.19;10377702;28;20492;-83
2022/03/09 18:55:39;;;;;;;4.22;2.58;;;;;;;6.05;51.89;99182.16;10345325;23;20058;-66
2022/03/09 19:00:42;;;;;;;3.60;2.42;;;;;;;6.01;51.82;99181.56;10316200;28;20052;-61
2022/03/09 19:05:47;;;;;;;4.80;2.63;;;;;;;5.93;52.12;99184.75;10326019;28;20100;-61
2022/03/09 19:10:51;;;;;;;5.30;2.88;;;;;;;5.90;52.86;99186.81;10320673;28;20065;-61
2022/03/09 19:15:54;;;;;;;4.35;3.15;;;;;;;5.72;53.92;99184.50;10324880;28;20042;-65
2022/03/09 19:20:59;;;;;;;3.80;2.70;;;;;;;5.46;54.62;99189.94;10324418;28;20042;-63
2022/03/09 19:26:02;;;;;;;3.35;2.58;;;;;;;5.43;54.41;99189.25;10325464;28;20042;-64
2022/03/09 19:31:05;;;;;;;3.50;2.40;;;;;;;5.32;54.24;99190.03;10324936;28;20052;-61
2022/03/09 19:36:09;;;;;;;4.03;2.80;;;;;;;5.26;54.02;99204.69;10321183;28;20428;-63
2022/03/09 19:41:13;;;;;;;4.63;2.53;;;;;;;5.23;54.19;99204.91;10320176;28;20034;-62
2022/03/09 19:46:22;;;;;;;4.40;2.50;;;;;;;5.19;53.98;99206.94;10324689;28;20129;-61
2022/03/09 19:51:26;;;;;;;3.90;2.60;;;;;;;5.12;54.29;99205.63;10323843;28;20046;-61
2022/03/09 19:56:31;;;;;;;4.85;2.63;;;;;;;5.12;54.17;99210.97;10324018;28;20038;-62
2022/03/09 20:01:34;;;;;;;4.63;2.30;;;;;;;5.06;54.70;99206.91;10323189;28;20062;-64
2022/03/09 20:06:39;;;;;;;3.70;2.80;;;;;;;4.98;55.07;99211.94;10321388;28;20392;-63
2022/03/09 20:11:44;;;;;;;3.92;2.40;;;;;;;4.96;55.52;99208.53;10305284;28;20042;-64
2022/03/09 20:16:48;;;;;;;4.32;2.40;;;;;;;4.86;56.13;99207.47;10339087;28;20099;-62
2022/03/09 20:21:54;;;;;;;6.20;2.70;;;;;;;4.66;57.64;99207.00;10339066;28;20061;-66
2022/03/09 20:26:59;;;;;;;3.90;2.90;;;;;;;4.46;58.97;99221.69;10337879;28;20129;-65
2022/03/09 20:32:05;;;;;;;3.97;2.58;;;;;;;4.23;61.16;99218.75;10323062;28;20053;-66
2022/03/09 20:37:11;;;;;;;4.22;2.20;;;;;;;4.20;61.54;99223.44;10337119;28;20111;-64
2022/03/09 20:42:15;;;;;;;2.60;2.20;;;;;;;4.19;61.94;99222.56;10337975;28;20125;-64
2022/03/09 20:47:18;;;;;;;4.18;2.05;;;;;;;4.23;62.08;99229.41;10337577;28;20525;-65
2022/03/09 20:52:22;;;;;;;3.00;2.20;;;;;;;4.24;62.79;99233.78;10335225;28;20518;-65
2022/03/09 20:57:26;;;;;;;3.10;2.20;;;;;;;4.23;62.62;99236.56;10344611;28;20065;-66
2022/03/09 21:02:29;;;;;;;3.03;2.20;;;;;;;4.19;62.65;99237.72;10337383;28;20206;-65
2022/03/09 21:07:38;;;;;;;3.03;2.10;;;;;;;4.15;63.15;99253.06;10345221;28;20042;-65
2022/03/09 21:12:42;;;;;;;4.72;2.28;;;;;;;4.10;63.46;99253.38;10337524;28;20052;-65
2022/03/09 21:17:46;;;;;;;3.92;2.38;;;;;;;4.01;64.40;99262.81;10329934;28;20117;-66
2022/03/09 21:22:51;;;;;;;3.55;2.30;;;;;;;3.91;66.22;99263.50;10325001;28;20042;-65
2022/03/09 21:28:00;;;;;;;3.25;2.20;;;;;;;3.83;67.00;99261.31;10337453;28;20759;-62
2022/03/09 21:33:04;;;;;;;4.93;2.17;;;;;;;3.76;67.93;99252.00;10336540;28;20129;-62
2022/03/09 21:38:08;;;;;;;2.20;2.00;;;;;;;3.70;69.86;99255.91;10332877;28;20458;-61
2022/03/09 21:43:12;;;;;;;2.92;2.28;;;;;;;3.60;72.56;99252.97;10335645;28;20046;-63
2022/03/09 21:48:18;;;;;;;2.95;2.30;;;;;;;3.53;73.76;99262.31;10332495;28;20094;-63
2022/03/09 21:53:22;;;;;;;4.28;2.45;;;;;;;3.51;74.74;99265.09;10314523;28;20061;-63
2022/03/09 21:58:25;;;;;;;4.70;2.50;;;;;;;3.47;76.97;99274.19;10335109;28;20100;-64
2022/03/09 22:03:29;;;;;;;4.25;2.22;;;;;;;3.44;78.89;99274.38;10328789;28;20149;-62
2022/03/09 22:08:37;;;;;;;4.82;2.50;;;;;;;3.43;80.59;99266.50;10320069;28;20041;-63
2022/03/09 22:13:41;;;;;;;3.20;2.40;;;;;;;3.40;81.36;99272.88;10318459;28;20375;-63
2022/03/09 22:18:44;;;;;;;2.58;2.38;;;;;;;3.36;84.02;99272.19;10303761;28;20141;-62
2022/03/09 22:23:48;;;;;;;3.25;2.60;;;;;;;3.33;84.22;99272.41;10315030;28;20039;-61
2022/03/09 22:28:52;;;;;;;4.35;2.63;;;;;;;3.27;82.12;99271.91;10320850;28;20039;-64
2022/03/09 22:33:56;;;;;;;4.35;2.45;;;;;;;3.14;84.12;99277.13;10316653;28;20530;-63
2022/03/09 22:39:02;;;;;;;3.10;2.53;;;;;;;3.07;85.75;99273.97;10303459;28;20054;-63
2022/03/09 22:44:05;;;;;;;3.35;2.58;;;;;;;2.95;85.18;99269.38;10320247;28;20407;-64
2022/03/09 22:49:08;;;;;;;3.42;2.72;;;;;;;2.79;87.37;99278.28;10321888;28;20514;-62
2022/03/09 22:54:13;;;;;;;3.10;2.80;;;;;;;2.67;88.84;99279.84;10324199;28;20062;-63
2022/03/09 22:59:18;;;;;;;4.43;2.72;;;;;;;2.54;92.91;99276.19;10328073;28;20161;-60
2022/03/09 23:04:21;;;;;;;2.90;2.60;;;;;;;2.44;96.09;99279.41;10324793;28;20050;-60
2022/03/09 23:09:27;;;;;;;2.67;2.47;;;;;;;2.37;97.55;99280.69;10328704;28;20070;-62
2022/03/09 23:14:31;;;;;;;3.13;2.47;;;;;;;2.32;97.87;99285.41;10327519;28;20046;-63
2022/03/09 23:19:34;;;;;;;2.72;2.30;;;;;;;2.20;99.20;99280.78;10327527;28;20050;-62
2022/03/09 23:24:39;;;;;;;3.65;2.78;;;;;;;2.10;100.00;99280.47;10323923;28;20054;-64
2022/03/09 23:29:42;;;;;;;4.45;3.13;;;;;;;2.01;100.00;99292.47;10325154;28;20069;-62
2022/03/09 23:34:45;;;;;;;4.93;3.00;;;;;;;1.89;100.00;99291.34;10309075;28;20057;-64
2022/03/09 23:39:49;;;;;;;4.15;3.15;;;;;;;1.74;100.00;99285.06;10326488;28;20043;-64
2022/03/09 23:44:52;;;;;;;4.65;3.13;;;;;;;1.59;100.00;99288.59;10326883;28;20074;-60
2022/03/09 23:49:55;;;;;;;4.85;3.40;;;;;;;1.47;100.00;99290.94;10325588;28;20125;-64